Time;durP1;ratioP1;P1;durP2;ratioP2;P2;SDS_P1;SDS_P2;PMS_P1;PMS_P2;Temp;Humidity;BMP_temperature;BMP_pressure;BME280_temperature;BME280_humidity;BME280_pressure;Samples;Min_cycle;Max_cycle;Signal;HPM_P1;HPM_P2
2023/12/13 00:01:48;;;;;;;1.40;0.70;;;;;;;7.85;94.49;94122.09;4980015;28;20290;-79
2023/12/13 00:04:13;;;;;;;3.30;1.10;;;;;;;7.85;94.43;94119.53;4969535;28;20212;-79
2023/12/13 00:06:39;;;;;;;2.23;0.90;;;;;;;7.76;94.19;94119.72;4994523;28;20188;-80
2023/12/13 00:09:04;;;;;;;4.20;0.70;;;;;;;7.74;93.62;94116.50;4996278;28;20275;-79
2023/12/13 00:11:29;;;;;;;5.13;1.50;;;;;;;7.43;95.88;94121.56;4994616;28;20184;-79
2023/12/13 00:13:55;;;;;;;3.47;0.90;;;;;;;7.53;95.80;94119.59;4991995;28;20195;-78
2023/12/13 00:16:21;;;;;;;2.20;0.63;;;;;;;7.69;94.32;94121.38;4997748;28;20293;-78
2023/12/13 00:18:47;;;;;;;3.03;0.67;;;;;;;7.78;93.48;94113.44;4978721;28;20276;-78
2023/12/13 00:21:17;;;;;;;4.43;0.90;;;;;;;7.56;95.46;94124.44;4994169;28;20302;-78
2023/12/13 00:23:43;;;;;;;1.70;0.80;;;;;;;7.62;95.11;94108.28;4994293;28;20195;-78
2023/12/13 00:26:16;;;;;;;2.17;0.73;;;;;;;7.72;94.58;94114.06;4994607;28;20208;-79
2023/12/13 00:28:42;;;;;;;3.47;1.03;;;;;;;7.61;94.13;94124.75;4978986;28;20279;-79
2023/12/13 00:31:11;;;;;;;5.30;1.00;;;;;;;7.60;94.98;94123.97;4976509;28;20644;-80
2023/12/13 00:33:37;;;;;;;3.90;1.03;;;;;;;7.47;95.49;94121.06;4980237;28;20254;-79
2023/12/13 00:36:03;;;;;;;3.80;0.90;;;;;;;7.54;94.50;94126.38;4977528;28;20234;-78
2023/12/13 00:38:28;;;;;;;1.47;0.73;;;;;;;7.46;94.26;94114.28;4960216;28;20192;-78
2023/12/13 00:40:54;;;;;;;1.70;0.67;;;;;;;7.37;94.88;94118.66;4994068;28;20230;-80
2023/12/13 00:43:19;;;;;;;1.10;0.73;;;;;;;7.25;96.78;94119.97;4996017;28;20219;-80
2023/12/13 00:45:44;;;;;;;1.43;0.70;;;;;;;7.41;96.07;94121.69;4994130;28;20246;-79
2023/12/13 00:48:10;;;;;;;4.17;1.10;;;;;;;7.41;96.37;94121.69;4976531;28;20191;-79
2023/12/13 00:50:35;;;;;;;0.93;0.60;;;;;;;7.54;95.58;94119.44;4977345;28;20184;-78
2023/12/13 00:53:01;;;;;;;2.03;0.70;;;;;;;7.40;96.63;94104.59;4993305;28;20789;-79
2023/12/13 00:55:28;;;;;;;2.73;0.80;;;;;;;7.55;96.17;94112.50;4981345;28;20211;-78
2023/12/13 00:57:53;;;;;;;3.27;1.00;;;;;;;7.50;96.08;94107.81;4997985;28;20175;-79
2023/12/13 01:00:18;;;;;;;2.10;0.80;;;;;;;7.55;95.21;94105.56;5014382;28;20196;-79
2023/12/13 01:02:44;;;;;;;4.00;1.30;;;;;;;7.58;95.38;94110.38;4998817;28;20196;-79
2023/12/13 01:05:09;;;;;;;4.80;0.90;;;;;;;7.52;96.08;94112.84;4975917;28;20261;-80
2023/12/13 01:07:35;;;;;;;3.23;1.00;;;;;;;7.53;95.99;94102.34;4979785;28;20684;-80
2023/12/13 01:10:00;;;;;;;5.80;0.90;;;;;;;7.59;96.38;94104.22;4978040;28;20267;-80
2023/12/13 01:12:26;;;;;;;3.87;0.90;;;;;;;7.51;96.16;94112.03;4995429;28;20210;-80
2023/12/13 01:14:51;;;;;;;4.67;1.10;;;;;;;7.54;96.64;94103.94;4995223;28;20218;-78
2023/12/13 01:17:16;;;;;;;2.00;1.03;;;;;;;7.52;96.38;94107.66;4978601;28;20215;-79
2023/12/13 01:19:42;;;;;;;4.03;0.97;;;;;;;7.55;96.32;94108.13;4995752;28;20278;-80
2023/12/13 01:22:08;;;;;;;1.43;0.83;;;;;;;7.51;95.59;94104.28;4996389;28;20179;-79
2023/12/13 01:24:33;;;;;;;0.83;0.67;;;;;;;7.61;96.15;94101.50;4996593;28;20258;-78
2023/12/13 01:27:02;;;;;;;3.97;0.93;;;;;;;7.50;96.14;94096.66;4993612;28;20184;-79
2023/12/13 01:29:27;;;;;;;6.83;1.57;;;;;;;7.59;95.92;94098.25;4979759;28;20180;-79
2023/12/13 01:31:53;;;;;;;2.67;0.80;;;;;;;7.52;96.48;94098.13;4996151;28;20835;-79
2023/12/13 01:34:18;;;;;;;2.17;0.90;;;;;;;7.55;96.08;94102.97;4973136;28;20745;-79
2023/12/13 01:36:43;;;;;;;3.70;0.97;;;;;;;7.56;96.19;94094.25;4961496;28;20184;-78
2023/12/13 01:39:09;;;;;;;4.73;1.27;;;;;;;7.45;96.29;94098.94;4974461;28;20708;-79
2023/12/13 01:41:36;;;;;;;3.73;0.80;;;;;;;7.55;96.21;94105.56;4977679;28;20580;-79
2023/12/13 01:44:01;;;;;;;2.37;1.00;;;;;;;7.59;95.23;94111.19;4979107;28;20221;-79
2023/12/13 01:46:27;;;;;;;1.93;0.93;;;;;;;7.54;94.37;94111.69;4978038;28;20192;-79
2023/12/13 01:48:52;;;;;;;4.73;1.37;;;;;;;7.63;94.92;94112.47;4976794;28;20190;-78
2023/12/13 01:51:18;;;;;;;3.43;0.90;;;;;;;7.55;95.55;94112.50;4995660;28;20206;-80
2023/12/13 01:53:43;;;;;;;4.70;1.43;;;;;;;7.61;94.61;94110.06;4976368;28;20684;-79
2023/12/13 01:56:10;;;;;;;1.57;1.10;;;;;;;7.51;95.28;94106.03;4963293;28;20234;-79
2023/12/13 01:58:38;;;;;;;2.47;1.10;;;;;;;7.50;95.75;94114.75;4998469;28;20184;-79
2023/12/13 02:01:05;;;;;;;5.23;1.10;;;;;;;7.53;94.59;94114.44;4977134;28;20278;-79
2023/12/13 02:03:30;;;;;;;4.97;1.10;;;;;;;7.42;95.31;94107.00;4995862;28;20179;-78
2023/12/13 02:05:56;;;;;;;5.47;1.33;;;;;;;7.41;95.95;94101.03;4996942;28;20227;-80
2023/12/13 02:08:22;;;;;;;7.63;1.40;;;;;;;7.50;96.15;94101.84;4997133;28;20255;-79
2023/12/13 02:10:48;;;;;;;5.27;1.10;;;;;;;7.49;95.40;94105.38;4978045;28;20530;-79
2023/12/13 02:13:14;;;;;;;2.73;1.17;;;;;;;7.53;95.00;94101.53;4977271;28;20188;-79
2023/12/13 02:15:41;;;;;;;3.73;0.90;;;;;;;7.55;95.24;94108.13;4994584;28;20242;-79
2023/12/13 02:18:08;;;;;;;4.87;0.97;;;;;;;7.49;95.56;94102.81;4996952;28;20191;-79
2023/12/13 02:20:33;;;;;;;4.67;1.40;;;;;;;7.51;96.51;94104.28;4976817;28;20211;-80
2023/12/13 02:22:59;;;;;;;2.60;1.00;;;;;;;7.52;96.15;94102.50;4994283;28;20184;-79
2023/12/13 02:25:47;;;;;;;5.30;1.17;;;;;;;7.71;95.47;94093.56;4993437;28;20235;-79
2023/12/13 02:28:13;;;;;;;3.33;1.03;;;;;;;7.65;95.50;94106.16;4994054;28;20561;-80
2023/12/13 02:30:40;;;;;;;2.83;1.17;;;;;;;7.51;96.20;94112.03;4994249;28;20180;-79
2023/12/13 02:33:07;;;;;;;4.90;1.40;;;;;;;7.58;96.82;94115.53;4973604;28;20188;-79
2023/12/13 02:35:33;;;;;;;2.63;0.93;;;;;;;7.57;97.14;94120.88;4991133;28;20206;-80
2023/12/13 02:37:58;;;;;;;3.63;1.07;;;;;;;7.47;98.41;94113.31;4977127;28;20251;-80
2023/12/13 02:40:24;;;;;;;2.87;1.10;;;;;;;7.45;98.93;94112.66;4978504;28;20232;-80
2023/12/13 02:42:50;;;;;;;2.07;1.10;;;;;;;7.48;99.10;94101.19;4977815;28;20192;-79
2023/12/13 02:45:16;;;;;;;0.53;0.50;;;;;;;7.48;98.89;94096.03;4997045;28;20211;-79
2023/12/13 02:47:42;;;;;;;1.37;0.57;;;;;;;7.38;98.80;94093.63;4996245;28;20563;-79
2023/12/13 02:50:16;;;;;;;0.70;0.40;;;;;;;7.56;97.60;94088.28;4997341;28;20270;-78
2023/12/13 02:52:42;;;;;;;1.30;0.60;;;;;;;7.35;97.74;94101.72;4977198;28;20266;-79
2023/12/13 02:55:11;;;;;;;1.50;0.40;;;;;;;7.40;97.63;94112.34;4978372;28;20632;-78
2023/12/13 02:57:37;;;;;;;1.40;0.50;;;;;;;7.41;97.64;94103.63;4983451;28;20215;-79
2023/12/13 03:00:03;;;;;;;1.63;0.50;;;;;;;7.47;97.20;94102.97;4996970;28;20291;-79
2023/12/13 03:02:29;;;;;;;1.23;1.13;;;;;;;7.33;97.97;94098.47;4995977;28;20183;-78
2023/12/13 03:04:54;;;;;;;0.63;0.40;;;;;;;7.50;97.09;94094.09;4995005;28;20303;-80
2023/12/13 03:07:21;;;;;;;1.90;0.50;;;;;;;7.41;97.03;94093.28;4975542;28;20206;-79
2023/12/13 03:09:46;;;;;;;0.73;0.43;;;;;;;7.55;96.56;94091.81;4958422;28;20249;-80
2023/12/13 03:12:12;;;;;;;0.87;0.37;;;;;;;7.60;95.84;94098.13;4997697;28;20175;-79
2023/12/13 03:14:37;;;;;;;0.40;0.40;;;;;;;7.59;96.03;94091.31;4978487;28;20207;-79
2023/12/13 03:17:02;;;;;;;0.90;0.47;;;;;;;7.61;96.24;94081.66;4994246;28;20192;-79
2023/12/13 03:19:28;;;;;;;2.00;0.43;;;;;;;7.43;97.47;94072.50;4994571;28;20567;-79
2023/12/13 03:21:53;;;;;;;2.60;0.50;;;;;;;7.55;96.44;94071.97;4996963;28;20239;-79
2023/12/13 03:24:18;;;;;;;1.17;0.50;;;;;;;7.62;95.72;94074.69;4977365;28;20211;-79
2023/12/13 03:26:44;;;;;;;0.60;0.50;;;;;;;7.58;95.97;94071.63;4997302;28;20179;-80
2023/12/13 03:29:09;;;;;;;0.70;0.60;;;;;;;7.61;96.19;94066.16;4994832;28;20595;-79
2023/12/13 03:31:34;;;;;;;1.73;0.53;;;;;;;7.58;95.08;94061.28;4995942;28;20180;-78
2023/12/13 03:34:00;;;;;;;0.90;0.50;;;;;;;7.39;96.47;94053.91;4977679;28;20565;-77
2023/12/13 03:36:26;;;;;;;1.10;0.50;;;;;;;7.49;95.68;94051.94;4977044;28;20184;-78
2023/12/13 03:38:52;;;;;;;2.10;0.47;;;;;;;7.48;95.49;94045.19;4977751;28;20918;-79
2023/12/13 03:41:17;;;;;;;1.53;0.50;;;;;;;7.47;95.84;94042.75;4995768;28;20208;-79
2023/12/13 03:43:42;;;;;;;1.53;0.60;;;;;;;7.46;95.86;94043.75;4993309;28;20198;-79
2023/12/13 03:46:08;;;;;;;1.50;0.60;;;;;;;7.40;96.70;94045.19;4978448;28;20207;-79
2023/12/13 03:48:33;;;;;;;1.63;0.40;;;;;;;7.41;96.14;94030.50;4994792;28;20666;-78
2023/12/13 03:50:58;;;;;;;2.10;0.60;;;;;;;7.37;96.40;94028.25;4995237;28;20196;-79
2023/12/13 03:53:24;;;;;;;2.13;0.50;;;;;;;7.28;97.07;94023.28;4994806;28;20195;-78
2023/12/13 03:55:49;;;;;;;1.17;0.60;;;;;;;7.32;97.10;94021.97;4974561;28;20280;-78
2023/12/13 03:58:14;;;;;;;1.23;0.80;;;;;;;7.33;96.90;94010.66;4990412;28;20191;-79
2023/12/13 04:00:41;;;;;;;2.87;0.70;;;;;;;7.45;96.48;94013.72;4995878;28;20215;-78
2023/12/13 04:03:06;;;;;;;3.67;0.90;;;;;;;7.24;97.02;94015.03;4991705;28;20219;-77
2023/12/13 04:05:32;;;;;;;3.50;0.90;;;;;;;7.20;97.13;94012.97;4978486;28;20242;-78
2023/12/13 04:07:57;;;;;;;2.33;0.77;;;;;;;7.25;97.46;94008.13;4977064;28;20215;-78
2023/12/13 04:10:23;;;;;;;2.33;0.70;;;;;;;7.31;96.44;94016.00;4995234;28;20583;-79
2023/12/13 04:12:48;;;;;;;2.10;0.90;;;;;;;7.37;96.38;94012.75;4992402;28;20216;-79
2023/12/13 04:15:13;;;;;;;2.33;0.70;;;;;;;7.37;96.75;94017.94;4994946;28;20999;-78
2023/12/13 04:17:39;;;;;;;2.80;0.83;;;;;;;7.20;97.52;94018.13;4994368;28;20195;-78
2023/12/13 04:20:05;;;;;;;3.80;1.17;;;;;;;7.32;96.90;94019.38;4996224;28;20326;-79
2023/12/13 04:22:30;;;;;;;3.57;0.93;;;;;;;7.29;96.85;94022.31;4977405;28;20237;-78
2023/12/13 04:24:56;;;;;;;2.63;0.80;;;;;;;7.32;97.04;94015.03;4991720;28;20211;-78
2023/12/13 04:27:21;;;;;;;2.13;0.87;;;;;;;7.27;96.89;94008.75;4962973;28;20187;-77
2023/12/13 04:29:46;;;;;;;1.93;0.70;;;;;;;7.32;96.56;94002.13;4995525;28;20184;-78
2023/12/13 04:32:12;;;;;;;3.23;0.80;;;;;;;7.31;96.67;94007.44;4975914;28;20207;-78
2023/12/13 04:34:37;;;;;;;3.33;0.90;;;;;;;7.25;95.96;94002.97;4977095;28;20225;-78
2023/12/13 04:37:03;;;;;;;2.50;0.80;;;;;;;7.33;96.36;94000.34;4994449;28;20187;-77
2023/12/13 04:39:28;;;;;;;2.27;0.70;;;;;;;7.26;96.48;94004.56;4974203;28;20180;-78
2023/12/13 04:41:54;;;;;;;2.67;0.70;;;;;;;7.27;96.30;94001.00;4993452;28;20239;-79
2023/12/13 04:44:19;;;;;;;1.73;0.80;;;;;;;7.29;96.45;93999.06;4976891;28;20271;-78
2023/12/13 04:46:44;;;;;;;1.70;0.73;;;;;;;7.29;96.06;93993.91;4995347;28;20186;-79
2023/12/13 04:49:10;;;;;;;1.60;0.80;;;;;;;7.18;96.58;93996.84;4976899;28;20199;-77
2023/12/13 04:51:35;;;;;;;1.50;0.90;;;;;;;7.24;96.83;93993.59;4976755;28;20654;-79
2023/12/13 04:54:01;;;;;;;2.53;1.00;;;;;;;7.31;95.44;93991.97;4975492;28;20188;-78
2023/12/13 04:56:26;;;;;;;4.50;1.70;;;;;;;7.18;96.24;93987.31;4979673;28;20190;-78
2023/12/13 04:58:53;;;;;;;1.80;1.33;;;;;;;7.18;96.23;93989.09;4980619;28;20211;-78
2023/12/13 05:01:18;;;;;;;2.40;1.70;;;;;;;7.17;97.03;93985.72;4995337;28;20235;-78
2023/12/13 05:03:43;;;;;;;1.20;0.87;;;;;;;7.14;97.19;93986.03;4960518;28;20216;-78
2023/12/13 05:06:09;;;;;;;2.27;1.20;;;;;;;7.16;96.11;93984.09;4995085;28;20211;-77
2023/12/13 05:08:34;;;;;;;2.33;1.07;;;;;;;7.16;96.10;93984.09;4991949;28;20195;-78
2023/12/13 05:10:59;;;;;;;1.83;1.00;;;;;;;7.12;96.80;93982.00;4976669;28;20706;-78
2023/12/13 05:13:25;;;;;;;3.30;1.10;;;;;;;7.16;96.34;93981.53;4993384;28;20567;-78
2023/12/13 05:15:51;;;;;;;2.63;1.30;;;;;;;7.19;96.66;93981.19;4993031;28;20439;-77
2023/12/13 05:18:17;;;;;;;2.00;1.03;;;;;;;7.16;96.76;93985.88;4993801;28;20192;-79
2023/12/13 05:20:42;;;;;;;2.70;1.10;;;;;;;7.16;96.68;93972.97;4960391;28;20707;-77
2023/12/13 05:23:07;;;;;;;2.30;0.90;;;;;;;7.22;96.75;93983.44;4969308;28;20192;-79
2023/12/13 05:25:33;;;;;;;2.90;1.53;;;;;;;7.16;96.92;93973.78;4993941;28;20199;-78
2023/12/13 05:27:59;;;;;;;1.30;1.10;;;;;;;7.18;96.86;93973.59;4995292;28;20620;-80
2023/12/13 05:30:24;;;;;;;2.53;1.27;;;;;;;7.20;96.88;93964.72;4994689;28;20629;-80
2023/12/13 05:32:52;;;;;;;3.53;1.17;;;;;;;7.20;96.73;93962.13;4977157;28;20194;-80
2023/12/13 05:35:18;;;;;;;7.23;4.13;;;;;;;7.18;96.39;93961.50;4993491;28;20236;-80
2023/12/13 05:37:43;;;;;;;7.30;3.60;;;;;;;7.19;96.32;93952.78;5009066;28;20657;-80
2023/12/13 05:40:09;;;;;;;5.17;2.93;;;;;;;7.21;95.60;93965.53;4989450;28;20207;-80
2023/12/13 05:42:34;;;;;;;5.30;1.70;;;;;;;7.04;96.97;93960.38;5011059;28;20194;-79
2023/12/13 05:45:00;;;;;;;6.10;1.60;;;;;;;7.02;96.55;93958.94;4987914;28;20207;-80
2023/12/13 05:47:25;;;;;;;3.53;1.20;;;;;;;7.06;96.67;93955.88;4979071;28;20180;-80
2023/12/13 05:49:51;;;;;;;5.40;1.43;;;;;;;6.95;97.07;93953.63;4997278;28;20661;-81
2023/12/13 05:52:18;;;;;;;1.93;1.30;;;;;;;7.05;97.13;93959.41;4996669;28;20853;-80
2023/12/13 05:54:43;;;;;;;3.57;1.77;;;;;;;6.87;97.61;93963.16;4972633;28;20218;-81
2023/12/13 05:57:09;;;;;;;2.30;1.73;;;;;;;6.79;98.26;93951.88;4999521;28;20203;-80
2023/12/13 05:59:34;;;;;;;2.63;1.60;;;;;;;6.97;97.62;93959.44;4996368;28;20192;-80
2023/12/13 06:01:59;;;;;;;2.57;1.17;;;;;;;6.83;98.12;93954.97;4978796;28;20223;-81
2023/12/13 06:04:25;;;;;;;2.33;1.10;;;;;;;6.85;97.98;93960.75;4997152;28;20203;-80
2023/12/13 06:06:50;;;;;;;1.80;1.03;;;;;;;6.71;98.82;93959.63;4994895;28;20249;-79
2023/12/13 06:09:15;;;;;;;4.23;1.53;;;;;;;6.82;98.55;93963.66;4995141;28;20192;-80
2023/12/13 06:11:41;;;;;;;5.60;3.27;;;;;;;6.92;97.83;93966.06;4980794;28;20191;-80
2023/12/13 06:14:06;;;;;;;2.97;2.73;;;;;;;6.94;98.06;93957.19;4983221;28;20302;-79
2023/12/13 06:16:32;;;;;;;5.00;2.13;;;;;;;7.05;97.49;93950.88;5001339;28;20204;-80
2023/12/13 06:18:57;;;;;;;3.97;2.27;;;;;;;7.10;96.64;93957.16;4982250;28;20202;-79
2023/12/13 06:21:22;;;;;;;2.07;1.70;;;;;;;7.12;96.33;93962.16;4981729;28;20195;-79
2023/12/13 06:23:48;;;;;;;2.50;1.50;;;;;;;6.97;97.20;93954.28;4999257;28;20199;-80
2023/12/13 06:26:13;;;;;;;5.17;2.57;;;;;;;6.89;97.09;93956.06;5002269;28;20274;-80
2023/12/13 06:28:38;;;;;;;2.27;0.90;;;;;;;6.76;97.36;93952.22;4982343;28;20653;-80
2023/12/13 06:31:04;;;;;;;1.63;0.90;;;;;;;6.90;97.24;93948.19;4999600;28;20215;-80
2023/12/13 06:33:29;;;;;;;1.70;1.10;;;;;;;6.99;96.66;93943.81;4982610;28;20200;-79
2023/12/13 06:35:55;;;;;;;3.20;1.00;;;;;;;6.96;96.34;93949.28;4966191;28;20254;-80
2023/12/13 06:38:21;;;;;;;0.80;0.80;;;;;;;7.01;96.33;93944.44;4984613;28;20253;-80
2023/12/13 06:40:46;;;;;;;4.47;1.53;;;;;;;6.98;96.23;93940.41;4984143;28;20681;-80
2023/12/13 06:43:11;;;;;;;1.57;0.80;;;;;;;7.01;96.02;93928.97;4982769;28;20215;-80
2023/12/13 06:45:37;;;;;;;1.77;1.03;;;;;;;7.10;95.44;93936.50;4983752;28;20211;-79
2023/12/13 06:48:02;;;;;;;1.00;0.90;;;;;;;6.99;95.55;93936.88;4982059;28;20682;-80
2023/12/13 06:50:28;;;;;;;2.73;0.90;;;;;;;7.07;95.07;93944.59;4997433;28;20198;-80
2023/12/13 06:52:54;;;;;;;3.10;1.07;;;;;;;6.95;95.86;93938.16;4980811;28;20183;-82
2023/12/13 06:55:19;;;;;;;1.00;0.80;;;;;;;6.83;96.91;93936.91;4983352;28;20239;-81
2023/12/13 06:57:45;;;;;;;1.30;1.07;;;;;;;6.88;96.46;93934.63;4977364;28;20282;-80
2023/12/13 07:00:11;;;;;;;4.43;1.10;;;;;;;6.96;96.22;93938.94;4978372;28;20192;-80
2023/12/13 07:02:36;;;;;;;1.20;1.00;;;;;;;7.01;95.93;93941.84;4998500;28;20725;-80
2023/12/13 07:05:02;;;;;;;1.50;1.17;;;;;;;6.95;96.18;93943.31;4992842;28;20204;-81
2023/12/13 07:07:27;;;;;;;1.47;0.90;;;;;;;6.81;96.96;93938.84;4996468;28;20279;-80
2023/12/13 07:09:53;;;;;;;1.60;1.10;;;;;;;6.88;96.71;93942.34;4978485;28;20235;-80
2023/12/13 07:12:20;;;;;;;3.63;1.00;;;;;;;6.85;96.56;93942.69;4997598;28;20191;-80
2023/12/13 07:14:45;;;;;;;2.63;1.10;;;;;;;6.89;96.30;93935.41;4953574;28;20239;-80
2023/12/13 07:17:11;;;;;;;1.40;0.90;;;;;;;6.85;96.59;93937.53;4980617;28;20188;-80
2023/12/13 07:19:36;;;;;;;2.37;0.90;;;;;;;6.99;96.29;93936.88;4994877;28;20264;-80
2023/12/13 07:22:02;;;;;;;2.33;1.10;;;;;;;6.90;96.65;93931.88;4998767;28;20215;-79
2023/12/13 07:24:27;;;;;;;5.23;1.30;;;;;;;6.87;96.22;93933.00;4993385;28;20255;-79
2023/12/13 07:26:53;;;;;;;3.57;1.00;;;;;;;6.81;96.13;93928.53;4979546;28;20188;-79
2023/12/13 07:29:19;;;;;;;1.63;1.10;;;;;;;6.92;95.95;93924.78;4978725;28;20184;-79
2023/12/13 07:31:45;;;;;;;3.33;1.20;;;;;;;6.98;95.39;93917.19;4972290;28;20555;-78
2023/12/13 07:34:10;;;;;;;1.40;1.30;;;;;;;6.90;95.90;93917.22;4997526;28;20207;-78
2023/12/13 07:36:36;;;;;;;1.40;1.30;;;;;;;6.76;96.64;93921.25;4998020;28;20683;-80
2023/12/13 07:39:03;;;;;;;1.73;1.00;;;;;;;6.92;96.20;93925.59;4999846;28;20255;-78
2023/12/13 07:41:29;;;;;;;1.67;1.10;;;;;;;6.83;96.47;93931.75;4995965;28;20298;-80
2023/12/13 07:43:54;;;;;;;2.53;1.10;;;;;;;6.85;96.20;93927.22;4980080;28;20211;-79
2023/12/13 07:46:20;;;;;;;2.20;1.10;;;;;;;6.80;97.36;93929.47;4974798;28;20219;-79
2023/12/13 07:48:45;;;;;;;3.87;0.93;;;;;;;6.73;97.83;93931.13;4981397;28;20188;-79
2023/12/13 07:51:11;;;;;;;1.30;1.20;;;;;;;6.82;97.73;93933.50;4999223;28;20246;-78
2023/12/13 07:53:38;;;;;;;1.73;1.33;;;;;;;6.93;96.59;93932.34;4998147;28;20192;-80
2023/12/13 07:56:04;;;;;;;1.10;1.00;;;;;;;6.90;96.77;93937.84;4980963;28;20231;-79
2023/12/13 07:58:30;;;;;;;1.93;1.07;;;;;;;6.96;96.49;93931.22;4970904;28;20188;-79
2023/12/13 08:00:55;;;;;;;1.00;0.70;;;;;;;6.91;96.33;93918.81;4994188;28;20206;-79
2023/12/13 08:03:20;;;;;;;2.30;1.90;;;;;;;6.86;97.04;93920.28;4976429;28;20685;-78
2023/12/13 08:05:46;;;;;;;2.30;1.67;;;;;;;7.15;95.42;93919.72;4996322;28;20596;-79
2023/12/13 08:08:12;;;;;;;2.27;2.07;;;;;;;7.28;94.89;93912.25;4978240;28;20653;-81
2023/12/13 08:10:37;;;;;;;2.43;2.23;;;;;;;7.25;94.15;93915.19;4978874;28;20191;-82
2023/12/13 08:13:03;;;;;;;1.67;1.57;;;;;;;7.08;95.55;93930.72;4976022;28;20572;-80
2023/12/13 08:15:28;;;;;;;1.40;1.30;;;;;;;7.28;94.80;93928.53;4977654;28;20223;-80
2023/12/13 08:17:53;;;;;;;1.00;0.90;;;;;;;7.19;95.41;93936.50;4980501;28;20188;-79
2023/12/13 08:20:19;;;;;;;2.23;1.20;;;;;;;7.09;95.88;93942.66;4980648;28;20223;-79
2023/12/13 08:22:46;;;;;;;2.87;1.00;;;;;;;7.04;96.60;93944.91;4999002;28;20690;-78
2023/12/13 08:25:11;;;;;;;2.70;0.87;;;;;;;7.03;96.78;93943.28;4998262;28;20204;-78
2023/12/13 08:27:36;;;;;;;2.53;1.47;;;;;;;7.16;95.59;93939.41;4994423;28;20250;-79
2023/12/13 08:30:02;;;;;;;16.37;7.00;;;;;;;6.92;96.89;93933.31;4993482;28;20204;-78
2023/12/13 08:32:28;;;;;;;3.23;1.87;;;;;;;7.10;95.90;93941.66;4993119;28;20172;-78
2023/12/13 08:34:53;;;;;;;2.50;1.40;;;;;;;7.34;94.98;93937.41;4992848;28;20815;-79
2023/12/13 08:37:20;;;;;;;1.53;1.43;;;;;;;7.30;94.67;93930.97;4992511;28;20211;-79
2023/12/13 08:39:45;;;;;;;2.03;1.40;;;;;;;7.45;94.70;93934.47;4991711;28;20180;-79
2023/12/13 08:42:10;;;;;;;1.13;1.00;;;;;;;7.42;95.14;93939.13;4959341;28;20226;-78
2023/12/13 08:44:36;;;;;;;2.17;1.50;;;;;;;7.61;94.12;93928.41;4975525;28;20208;-80
2023/12/13 08:47:01;;;;;;;1.13;1.03;;;;;;;7.64;93.98;93938.41;4995182;28;20207;-78
2023/12/13 08:49:26;;;;;;;1.43;1.07;;;;;;;7.51;94.62;93931.22;4997810;28;20199;-79
2023/12/13 08:51:51;;;;;;;1.27;1.17;;;;;;;7.57;94.38;93934.88;4978056;28;20176;-79
2023/12/13 08:54:17;;;;;;;3.43;1.30;;;;;;;7.56;94.33;93934.09;4938862;28;20226;-79
2023/12/13 08:56:42;;;;;;;3.13;1.77;;;;;;;7.74;94.11;93938.19;4993293;28;20210;-79
2023/12/13 08:59:08;;;;;;;1.80;1.23;;;;;;;7.66;95.15;93934.69;4960162;28;20187;-79
2023/12/13 09:01:33;;;;;;;2.57;1.00;;;;;;;7.77;93.94;93932.69;4992096;28;20200;-78
2023/12/13 09:03:59;;;;;;;1.37;1.07;;;;;;;8.05;93.37;93944.19;4994268;28;20295;-83
2023/12/13 09:06:24;;;;;;;6.13;2.80;;;;;;;8.05;93.37;93931.25;4977122;28;20187;-79
2023/12/13 09:08:50;;;;;;;3.17;1.53;;;;;;;7.99;93.58;93929.34;4984413;28;20251;-78
2023/12/13 09:11:15;;;;;;;3.03;1.37;;;;;;;7.85;93.96;93932.63;4977645;28;20176;-79
2023/12/13 09:13:40;;;;;;;1.77;1.40;;;;;;;7.99;93.23;93934.50;4989346;28;20187;-78
2023/12/13 09:16:06;;;;;;;1.10;1.00;;;;;;;7.98;93.02;93938.06;4994274;28;20278;-79
2023/12/13 09:18:31;;;;;;;2.93;1.50;;;;;;;7.85;93.53;93937.81;4995645;28;20198;-79
2023/12/13 09:20:57;;;;;;;2.80;1.30;;;;;;;7.98;93.23;93943.25;4994987;28;20223;-79
2023/12/13 09:23:23;;;;;;;2.53;1.40;;;;;;;7.93;93.38;93938.56;4974228;28;20569;-78
2023/12/13 09:25:49;;;;;;;1.40;1.30;;;;;;;8.08;93.06;93935.25;4955668;28;20693;-80
2023/12/13 09:28:15;;;;;;;2.60;1.50;;;;;;;8.13;93.06;93930.41;4973482;28;20198;-80
2023/12/13 09:30:40;;;;;;;1.93;1.20;;;;;;;8.20;93.43;93936.47;4974933;28;20184;-79
2023/12/13 09:33:05;;;;;;;2.10;1.00;;;;;;;8.11;93.60;93929.75;4993743;28;20189;-79
2023/12/13 09:35:31;;;;;;;3.93;2.83;;;;;;;8.13;92.94;93932.97;4976416;28;20235;-79
2023/12/13 09:37:56;;;;;;;3.10;2.40;;;;;;;8.20;93.16;93937.25;4976787;28;20194;-79
2023/12/13 09:40:21;;;;;;;5.17;2.67;;;;;;;8.33;92.90;93935.91;4977217;28;20270;-79
2023/12/13 09:42:47;;;;;;;5.10;3.10;;;;;;;8.26;92.71;93938.38;4976030;28;20623;-79
2023/12/13 09:45:21;;;;;;;4.47;2.77;;;;;;;8.37;92.40;93948.34;4994375;28;20712;-80
2023/12/13 09:47:50;;;;;;;6.60;3.50;;;;;;;8.32;92.52;93952.41;4996313;28;20735;-79
2023/12/13 09:50:16;;;;;;;3.03;1.83;;;;;;;8.33;92.60;93952.22;4998380;28;20214;-80
2023/12/13 09:52:43;;;;;;;2.70;1.43;;;;;;;8.24;92.16;93948.88;4963033;28;20191;-79
2023/12/13 09:55:09;;;;;;;2.60;1.50;;;;;;;8.19;92.14;93966.69;4976761;28;20267;-79
2023/12/13 09:57:34;;;;;;;2.07;1.60;;;;;;;8.27;92.34;93957.28;4976691;28;20266;-80
2023/12/13 10:00:00;;;;;;;1.77;1.40;;;;;;;8.15;92.96;93962.84;4994212;28;20191;-80
2023/12/13 10:02:26;;;;;;;2.80;1.47;;;;;;;8.13;92.28;93945.91;4976487;28;20234;-80
2023/12/13 10:04:52;;;;;;;1.30;1.20;;;;;;;8.07;92.63;93957.72;4978979;28;20211;-79
2023/12/13 10:07:18;;;;;;;2.47;1.63;;;;;;;8.15;92.69;93943.94;4974628;28;20546;-79
2023/12/13 10:09:44;;;;;;;1.80;1.20;;;;;;;8.21;92.38;93941.47;4993032;28;20246;-79
2023/12/13 10:12:12;;;;;;;2.30;1.90;;;;;;;8.17;92.27;93965.25;4977975;28;20214;-79
2023/12/13 10:14:38;;;;;;;4.47;3.07;;;;;;;8.19;92.99;93948.59;4977007;28;20203;-80
2023/12/13 10:17:03;;;;;;;5.07;3.80;;;;;;;8.32;92.53;93952.41;4980609;28;20254;-79
2023/12/13 10:19:30;;;;;;;2.33;2.13;;;;;;;8.15;93.22;93944.75;5005009;28;20211;-78
2023/12/13 10:21:55;;;;;;;4.27;2.03;;;;;;;8.23;93.34;93952.47;4994364;28;20200;-78
2023/12/13 10:24:21;;;;;;;3.50;2.17;;;;;;;8.32;93.40;93953.22;4990001;28;20263;-79
2023/12/13 10:26:46;;;;;;;2.90;1.97;;;;;;;8.56;93.24;93948.84;4977025;28;20248;-78
2023/12/13 10:29:12;;;;;;;2.33;1.93;;;;;;;8.68;92.31;93950.06;4963147;28;20251;-79
2023/12/13 10:31:37;;;;;;;2.93;2.17;;;;;;;8.94;91.87;93944.47;4993878;28;20200;-79
2023/12/13 10:34:02;;;;;;;2.57;2.00;;;;;;;9.03;92.07;93943.41;4979006;28;20231;-79
2023/12/13 10:36:29;;;;;;;1.50;1.30;;;;;;;9.17;91.48;93940.03;4982744;28;20202;-79
2023/12/13 10:38:55;;;;;;;2.77;1.90;;;;;;;9.56;90.89;93938.97;4976204;28;20186;-79
2023/12/13 10:41:25;;;;;;;4.20;2.40;;;;;;;9.62;89.21;93938.22;4992927;28;20295;-78
2023/12/13 10:43:54;;;;;;;4.50;2.47;;;;;;;9.74;89.44;93936.78;4977699;28;20187;-78
2023/12/13 10:46:21;;;;;;;4.20;1.93;;;;;;;9.37;88.74;93942.91;4977657;28;20176;-79
2023/12/13 10:48:47;;;;;;;3.97;3.30;;;;;;;9.36;90.20;93938.69;4995244;28;20567;-79
2023/12/13 10:51:13;;;;;;;3.80;3.00;;;;;;;9.50;89.98;93931.91;4963236;28;20191;-78
2023/12/13 10:53:40;;;;;;;4.13;2.07;;;;;;;9.58;89.65;93937.00;4978618;28;20184;-79
2023/12/13 10:56:05;;;;;;;3.17;2.27;;;;;;;9.10;89.70;93936.56;4992446;28;20275;-78
2023/12/13 10:58:31;;;;;;;2.93;2.37;;;;;;;8.96;90.80;93932.16;4994701;28;20196;-79
2023/12/13 11:00:57;;;;;;;2.80;1.97;;;;;;;9.05;90.83;93938.88;4998317;28;20214;-79
2023/12/13 11:03:37;;;;;;;3.27;2.00;;;;;;;9.03;90.87;93930.47;4981009;28;20649;-79
2023/12/13 11:06:07;;;;;;;3.07;1.50;;;;;;;9.15;91.04;93923.06;4976216;28;20777;-79
2023/12/13 11:08:38;;;;;;;2.33;1.10;;;;;;;9.27;90.19;93924.22;4978757;28;20219;-79
2023/12/13 11:11:06;;;;;;;1.27;1.00;;;;;;;9.45;90.50;93929.03;4981811;28;20211;-78
2023/12/13 11:13:31;;;;;;;3.67;1.87;;;;;;;9.42;90.21;93927.59;4981334;28;20202;-77
2023/12/13 11:15:58;;;;;;;2.17;1.27;;;;;;;9.57;89.84;93925.00;4979615;28;20693;-79
2023/12/13 11:18:24;;;;;;;3.10;1.10;;;;;;;9.85;88.92;93922.56;4966283;28;20192;-79
2023/12/13 11:20:55;;;;;;;1.73;0.77;;;;;;;9.88;87.30;93922.97;4980441;28;20263;-79
2023/12/13 11:23:26;;;;;;;2.43;1.00;;;;;;;10.26;86.19;93929.81;4997219;28;20302;-79
2023/12/13 11:25:54;;;;;;;1.63;0.80;;;;;;;10.19;85.96;93922.72;4961265;28;20244;-80
2023/12/13 11:28:23;;;;;;;2.43;0.90;;;;;;;9.82;85.02;93917.75;4980502;28;20211;-79
2023/12/13 11:30:49;;;;;;;2.27;0.93;;;;;;;9.73;85.59;93918.84;4979354;28;20183;-79
2023/12/13 11:33:15;;;;;;;5.10;2.53;;;;;;;9.62;84.96;93927.84;4971778;28;20198;-80
2023/12/13 11:35:41;;;;;;;2.50;1.00;;;;;;;9.45;85.36;93910.91;4983098;28;20342;-79